sensor_id;sensor_type;location;lat;lon;timestamp;pressure;altitude;pressure_sealevel;temperature;humidity
12536;BME280;6334;48.696;2.114;2023-04-22T00:02:29;98967.95;;;10.11;56.03
12536;BME280;6334;48.696;2.114;2023-04-22T00:04:59;98969.33;;;10.03;55.85
12536;BME280;6334;48.696;2.114;2023-04-22T00:07:30;98968.66;;;9.83;56.03
12536;BME280;6334;48.696;2.114;2023-04-22T00:10:01;98971.02;;;10.06;56.27
12536;BME280;6334;48.696;2.114;2023-04-22T00:12:32;98972.45;;;9.96;56.92
12536;BME280;6334;48.696;2.114;2023-04-22T00:15:02;98972.29;;;9.92;56.60
12536;BME280;6334;48.696;2.114;2023-04-22T00:17:32;98968.59;;;9.81;56.24
12536;BME280;6334;48.696;2.114;2023-04-22T00:20:02;98974.11;;;9.83;57.08
12536;BME280;6334;48.696;2.114;2023-04-22T00:22:33;98975.98;;;9.64;56.95
12536;BME280;6334;48.696;2.114;2023-04-22T00:25:03;98972.23;;;9.85;56.87
12536;BME280;6334;48.696;2.114;2023-04-22T00:27:33;98974.05;;;9.60;57.12
12536;BME280;6334;48.696;2.114;2023-04-22T00:30:04;98975.16;;;9.38;57.88
12536;BME280;6334;48.696;2.114;2023-04-22T00:32:34;98974.30;;;9.59;56.22
12536;BME280;6334;48.696;2.114;2023-04-22T00:35:04;98976.88;;;9.52;57.55
12536;BME280;6334;48.696;2.114;2023-04-22T00:37:34;98976.98;;;9.56;57.07
12536;BME280;6334;48.696;2.114;2023-04-22T00:40:05;98981.73;;;9.57;57.19
12536;BME280;6334;48.696;2.114;2023-04-22T00:42:36;98976.36;;;9.66;57.48
12536;BME280;6334;48.696;2.114;2023-04-22T00:45:08;98968.31;;;9.60;57.46
12536;BME280;6334;48.696;2.114;2023-04-22T00:47:36;98966.40;;;9.73;56.51
12536;BME280;6334;48.696;2.114;2023-04-22T00:50:06;98955.97;;;9.78;57.03
12536;BME280;6334;48.696;2.114;2023-04-22T00:52:37;98954.70;;;9.59;57.73
12536;BME280;6334;48.696;2.114;2023-04-22T00:55:09;98948.05;;;9.43;57.80
12536;BME280;6334;48.696;2.114;2023-04-22T00:57:38;98950.34;;;9.54;57.56
12536;BME280;6334;48.696;2.114;2023-04-22T01:00:09;98931.80;;;9.68;57.44
12536;BME280;6334;48.696;2.114;2023-04-22T01:02:39;98929.23;;;9.78;57.40
12536;BME280;6334;48.696;2.114;2023-04-22T01:05:09;98929.95;;;9.08;59.75
12536;BME280;6334;48.696;2.114;2023-04-22T01:07:40;98931.56;;;9.49;58.99
12536;BME280;6334;48.696;2.114;2023-04-22T01:10:10;98920.27;;;9.51;57.80
12536;BME280;6334;48.696;2.114;2023-04-22T01:12:41;98921.95;;;9.57;57.58
12536;BME280;6334;48.696;2.114;2023-04-22T01:15:11;98915.31;;;9.34;58.18
12536;BME280;6334;48.696;2.114;2023-04-22T01:17:41;98906.54;;;8.85;59.21
12536;BME280;6334;48.696;2.114;2023-04-22T01:20:11;98898.78;;;8.80;59.72
12536;BME280;6334;48.696;2.114;2023-04-22T01:22:43;98898.39;;;9.17;58.02
12536;BME280;6334;48.696;2.114;2023-04-22T01:25:12;98901.04;;;8.87;58.07
12536;BME280;6334;48.696;2.114;2023-04-22T01:27:43;98896.44;;;9.32;57.27
12536;BME280;6334;48.696;2.114;2023-04-22T01:30:13;98892.27;;;8.40;60.90
12536;BME280;6334;48.696;2.114;2023-04-22T01:32:44;98891.55;;;9.21;58.82
12536;BME280;6334;48.696;2.114;2023-04-22T01:35:14;98885.48;;;9.26;58.38
12536;BME280;6334;48.696;2.114;2023-04-22T01:37:45;98878.87;;;9.12;58.24
12536;BME280;6334;48.696;2.114;2023-04-22T01:40:15;98872.31;;;9.34;57.91
12536;BME280;6334;48.696;2.114;2023-04-22T01:42:46;98873.05;;;9.57;57.74
12536;BME280;6334;48.696;2.114;2023-04-22T01:45:16;98881.49;;;9.37;57.55
12536;BME280;6334;48.696;2.114;2023-04-22T01:47:46;98879.50;;;9.56;57.41
12536;BME280;6334;48.696;2.114;2023-04-22T01:50:17;98872.58;;;9.37;58.17
12536;BME280;6334;48.696;2.114;2023-04-22T01:55:22;98848.73;;;9.39;57.85
12536;BME280;6334;48.696;2.114;2023-04-22T01:57:53;98842.83;;;9.39;57.51
12536;BME280;6334;48.696;2.114;2023-04-22T02:00:23;98852.02;;;9.51;57.72
12536;BME280;6334;48.696;2.114;2023-04-22T02:05:29;98852.25;;;9.40;56.87
12536;BME280;6334;48.696;2.114;2023-04-22T02:07:59;98847.25;;;9.47;57.25
12536;BME280;6334;48.696;2.114;2023-04-22T02:10:30;98845.48;;;9.45;58.83
12536;BME280;6334;48.696;2.114;2023-04-22T02:13:00;98849.50;;;9.47;57.30
12536;BME280;6334;48.696;2.114;2023-04-22T02:15:30;98853.63;;;9.38;58.40
12536;BME280;6334;48.696;2.114;2023-04-22T02:18:01;98851.31;;;9.48;57.14
12536;BME280;6334;48.696;2.114;2023-04-22T02:20:31;98856.96;;;9.48;56.96
12536;BME280;6334;48.696;2.114;2023-04-22T02:23:02;98852.59;;;9.55;58.14
12536;BME280;6334;48.696;2.114;2023-04-22T02:25:32;98857.17;;;9.58;56.40
12536;BME280;6334;48.696;2.114;2023-04-22T02:28:03;98866.30;;;9.36;57.92
12536;BME280;6334;48.696;2.114;2023-04-22T02:30:33;98867.83;;;9.28;57.65
12536;BME280;6334;48.696;2.114;2023-04-22T02:33:04;98869.88;;;9.67;56.81
12536;BME280;6334;48.696;2.114;2023-04-22T02:35:33;98859.67;;;9.57;59.32
12536;BME280;6334;48.696;2.114;2023-04-22T02:38:04;98861.16;;;9.20;59.99
12536;BME280;6334;48.696;2.114;2023-04-22T02:40:34;98855.27;;;9.51;58.39
12536;BME280;6334;48.696;2.114;2023-04-22T02:43:05;98853.42;;;9.58;58.41
12536;BME280;6334;48.696;2.114;2023-04-22T02:45:35;98857.25;;;9.52;58.44
12536;BME280;6334;48.696;2.114;2023-04-22T02:48:05;98850.63;;;9.51;57.33
12536;BME280;6334;48.696;2.114;2023-04-22T02:50:36;98838.84;;;9.52;58.31
12536;BME280;6334;48.696;2.114;2023-04-22T02:53:06;98827.31;;;9.38;59.29
12536;BME280;6334;48.696;2.114;2023-04-22T02:55:37;98818.09;;;9.39;59.64
12536;BME280;6334;48.696;2.114;2023-04-22T02:58:06;98817.41;;;9.30;59.25
12536;BME280;6334;48.696;2.114;2023-04-22T03:00:36;98817.28;;;9.50;57.99
12536;BME280;6334;48.696;2.114;2023-04-22T03:03:06;98806.77;;;9.67;57.01
12536;BME280;6334;48.696;2.114;2023-04-22T03:05:37;98793.73;;;9.40;58.06
12536;BME280;6334;48.696;2.114;2023-04-22T03:08:07;98787.88;;;9.44;57.47
12536;BME280;6334;48.696;2.114;2023-04-22T03:10:38;98787.52;;;9.61;58.07
12536;BME280;6334;48.696;2.114;2023-04-22T03:13:17;98786.50;;;9.67;58.64
12536;BME280;6334;48.696;2.114;2023-04-22T03:15:48;98784.92;;;9.49;58.42
12536;BME280;6334;48.696;2.114;2023-04-22T03:18:19;98783.04;;;9.31;58.96
12536;BME280;6334;48.696;2.114;2023-04-22T03:20:49;98789.94;;;9.42;59.13
12536;BME280;6334;48.696;2.114;2023-04-22T03:23:20;98794.53;;;9.53;59.11
12536;BME280;6334;48.696;2.114;2023-04-22T03:25:49;98801.53;;;9.31;60.56
12536;BME280;6334;48.696;2.114;2023-04-22T03:28:20;98806.15;;;9.63;59.88
12536;BME280;6334;48.696;2.114;2023-04-22T03:30:50;98808.06;;;9.29;60.81
12536;BME280;6334;48.696;2.114;2023-04-22T03:33:21;98798.23;;;9.75;59.74
12536;BME280;6334;48.696;2.114;2023-04-22T03:35:51;98787.02;;;9.58;61.94
12536;BME280;6334;48.696;2.114;2023-04-22T03:38:21;98777.81;;;9.42;61.40
12536;BME280;6334;48.696;2.114;2023-04-22T03:40:52;98763.97;;;9.33;61.40
12536;BME280;6334;48.696;2.114;2023-04-22T03:43:22;98771.16;;;9.15;61.54
12536;BME280;6334;48.696;2.114;2023-04-22T03:45:52;98817.45;;;9.13;62.29
12536;BME280;6334;48.696;2.114;2023-04-22T03:48:22;98810.17;;;9.17;63.64
12536;BME280;6334;48.696;2.114;2023-04-22T03:50:53;98796.31;;;9.40;63.53
12536;BME280;6334;48.696;2.114;2023-04-22T03:53:24;98780.44;;;9.59;63.75
12536;BME280;6334;48.696;2.114;2023-04-22T03:55:54;98768.14;;;9.50;63.05
12536;BME280;6334;48.696;2.114;2023-04-22T03:58:24;98758.00;;;8.60;65.96
12536;BME280;6334;48.696;2.114;2023-04-22T04:00:54;98743.02;;;9.25;64.39
12536;BME280;6334;48.696;2.114;2023-04-22T04:03:26;98737.30;;;9.03;64.41
12536;BME280;6334;48.696;2.114;2023-04-22T04:05:56;98720.39;;;8.81;65.17
12536;BME280;6334;48.696;2.114;2023-04-22T04:08:26;98713.92;;;9.12;65.28
12536;BME280;6334;48.696;2.114;2023-04-22T04:10:57;98712.05;;;9.19;66.03
12536;BME280;6334;48.696;2.114;2023-04-22T04:13:27;98722.78;;;9.07;66.89
12536;BME280;6334;48.696;2.114;2023-04-22T04:15:57;98723.04;;;9.22;65.48
12536;BME280;6334;48.696;2.114;2023-04-22T04:18:27;98721.56;;;9.05;66.01
12536;BME280;6334;48.696;2.114;2023-04-22T04:20:58;98721.17;;;9.05;65.61
12536;BME280;6334;48.696;2.114;2023-04-22T04:23:27;98728.00;;;8.94;67.90
12536;BME280;6334;48.696;2.114;2023-04-22T04:25:58;98747.47;;;8.82;69.08
12536;BME280;6334;48.696;2.114;2023-04-22T04:28:28;98741.18;;;8.92;70.75
12536;BME280;6334;48.696;2.114;2023-04-22T04:31:00;98713.94;;;9.50;67.43
12536;BME280;6334;48.696;2.114;2023-04-22T04:33:31;98677.66;;;9.23;70.66
12536;BME280;6334;48.696;2.114;2023-04-22T04:36:01;98668.05;;;8.78;73.60
12536;BME280;6334;48.696;2.114;2023-04-22T04:38:31;98685.70;;;9.00;71.37
12536;BME280;6334;48.696;2.114;2023-04-22T04:41:01;98695.59;;;8.71;71.83
12536;BME280;6334;48.696;2.114;2023-04-22T04:43:32;98725.13;;;8.64;72.40
12536;BME280;6334;48.696;2.114;2023-04-22T04:46:03;98727.11;;;8.93;71.39
12536;BME280;6334;48.696;2.114;2023-04-22T04:48:33;98711.94;;;9.17;73.19
12536;BME280;6334;48.696;2.114;2023-04-22T04:51:03;98703.23;;;8.93;75.58
12536;BME280;6334;48.696;2.114;2023-04-22T04:53:34;98692.33;;;8.78;74.84
12536;BME280;6334;48.696;2.114;2023-04-22T04:56:04;98695.78;;;8.67;71.51
12536;BME280;6334;48.696;2.114;2023-04-22T04:58:34;98701.81;;;9.02;72.20
12536;BME280;6334;48.696;2.114;2023-04-22T05:01:05;98691.23;;;8.79;73.85
12536;BME280;6334;48.696;2.114;2023-04-22T05:03:35;98703.08;;;8.50;74.89
12536;BME280;6334;48.696;2.114;2023-04-22T05:06:05;98698.77;;;8.92;75.38
12536;BME280;6334;48.696;2.114;2023-04-22T05:08:35;98699.64;;;9.06;75.68
12536;BME280;6334;48.696;2.114;2023-04-22T05:11:06;98693.01;;;9.00;77.33
12536;BME280;6334;48.696;2.114;2023-04-22T05:13:36;98705.41;;;8.95;75.95
12536;BME280;6334;48.696;2.114;2023-04-22T05:16:06;98704.70;;;9.02;76.62
12536;BME280;6334;48.696;2.114;2023-04-22T05:18:37;98714.58;;;9.27;77.07
12536;BME280;6334;48.696;2.114;2023-04-22T05:21:07;98747.98;;;9.26;75.07
12536;BME280;6334;48.696;2.114;2023-04-22T05:23:37;98774.11;;;9.00;78.21
12536;BME280;6334;48.696;2.114;2023-04-22T05:26:08;98769.48;;;9.19;75.91
12536;BME280;6334;48.696;2.114;2023-04-22T05:28:39;98774.50;;;9.21;77.12
12536;BME280;6334;48.696;2.114;2023-04-22T05:31:09;98782.26;;;9.47;77.91
12536;BME280;6334;48.696;2.114;2023-04-22T05:33:40;98770.41;;;9.21;77.36
12536;BME280;6334;48.696;2.114;2023-04-22T05:36:10;98759.11;;;9.43;77.01
12536;BME280;6334;48.696;2.114;2023-04-22T05:38:41;98747.48;;;8.94;75.95
12536;BME280;6334;48.696;2.114;2023-04-22T05:41:11;98732.23;;;8.84;75.92
12536;BME280;6334;48.696;2.114;2023-04-22T05:43:42;98717.06;;;9.18;75.85
12536;BME280;6334;48.696;2.114;2023-04-22T05:46:12;98735.37;;;9.35;73.63
12536;BME280;6334;48.696;2.114;2023-04-22T05:48:43;98735.53;;;9.11;77.19
12536;BME280;6334;48.696;2.114;2023-04-22T05:51:13;98730.23;;;9.13;74.35
12536;BME280;6334;48.696;2.114;2023-04-22T05:53:44;98739.95;;;9.40;75.21
12536;BME280;6334;48.696;2.114;2023-04-22T05:56:14;98751.03;;;9.14;78.41
12536;BME280;6334;48.696;2.114;2023-04-22T05:58:44;98749.25;;;9.40;77.55
12536;BME280;6334;48.696;2.114;2023-04-22T06:01:14;98747.10;;;9.18;77.88
12536;BME280;6334;48.696;2.114;2023-04-22T06:03:45;98733.70;;;9.44;75.55
12536;BME280;6334;48.696;2.114;2023-04-22T06:06:15;98736.25;;;9.39;75.69
12536;BME280;6334;48.696;2.114;2023-04-22T06:08:45;98744.63;;;9.53;75.43
12536;BME280;6334;48.696;2.114;2023-04-22T06:11:16;98754.78;;;9.29;76.36
12536;BME280;6334;48.696;2.114;2023-04-22T06:16:21;98771.08;;;9.49;75.17
12536;BME280;6334;48.696;2.114;2023-04-22T06:18:51;98769.46;;;9.44;77.95
12536;BME280;6334;48.696;2.114;2023-04-22T06:21:22;98768.44;;;9.15;80.37
12536;BME280;6334;48.696;2.114;2023-04-22T06:23:52;98762.30;;;9.33;79.75
12536;BME280;6334;48.696;2.114;2023-04-22T06:26:22;98762.27;;;9.40;76.09
12536;BME280;6334;48.696;2.114;2023-04-22T06:28:52;98760.16;;;9.60;75.64
12536;BME280;6334;48.696;2.114;2023-04-22T06:31:23;98759.80;;;9.21;77.98
12536;BME280;6334;48.696;2.114;2023-04-22T06:33:53;98761.30;;;9.43;78.03
12536;BME280;6334;48.696;2.114;2023-04-22T06:36:23;98766.05;;;9.54;79.58
12536;BME280;6334;48.696;2.114;2023-04-22T06:38:54;98767.16;;;9.35;80.54
12536;BME280;6334;48.696;2.114;2023-04-22T06:41:25;98757.82;;;9.33;80.05
12536;BME280;6334;48.696;2.114;2023-04-22T06:44:01;98752.45;;;9.07;81.81
12536;BME280;6334;48.696;2.114;2023-04-22T06:46:32;98741.28;;;9.40;79.95
12536;BME280;6334;48.696;2.114;2023-04-22T06:49:03;98737.51;;;9.62;79.28
12536;BME280;6334;48.696;2.114;2023-04-22T06:51:34;98738.73;;;9.56;79.11
12536;BME280;6334;48.696;2.114;2023-04-22T06:56:38;98745.08;;;9.58;80.81
12536;BME280;6334;48.696;2.114;2023-04-22T06:59:09;98744.25;;;9.58;78.22
12536;BME280;6334;48.696;2.114;2023-04-22T07:01:39;98744.16;;;9.81;77.15
12536;BME280;6334;48.696;2.114;2023-04-22T07:04:12;98749.50;;;9.63;78.39
12536;BME280;6334;48.696;2.114;2023-04-22T07:06:42;98740.55;;;9.93;79.86
12536;BME280;6334;48.696;2.114;2023-04-22T07:09:14;98744.58;;;9.92;78.25
12536;BME280;6334;48.696;2.114;2023-04-22T07:11:43;98754.55;;;9.78;81.27
12536;BME280;6334;48.696;2.114;2023-04-22T07:14:15;98745.17;;;9.95;79.04
12536;BME280;6334;48.696;2.114;2023-04-22T07:16:45;98744.34;;;9.92;77.64
12536;BME280;6334;48.696;2.114;2023-04-22T07:19:16;98746.66;;;10.03;80.05
12536;BME280;6334;48.696;2.114;2023-04-22T07:21:46;98756.02;;;9.90;82.23
12536;BME280;6334;48.696;2.114;2023-04-22T07:24:17;98753.57;;;9.58;83.35
12536;BME280;6334;48.696;2.114;2023-04-22T07:26:48;98750.48;;;10.03;78.61
12536;BME280;6334;48.696;2.114;2023-04-22T07:29:18;98751.16;;;9.89;80.23
12536;BME280;6334;48.696;2.114;2023-04-22T07:31:48;98743.68;;;9.97;79.44
12536;BME280;6334;48.696;2.114;2023-04-22T07:34:19;98741.54;;;10.13;81.47
12536;BME280;6334;48.696;2.114;2023-04-22T07:36:49;98735.56;;;10.13;82.51
12536;BME280;6334;48.696;2.114;2023-04-22T07:39:20;98731.59;;;10.04;81.02
12536;BME280;6334;48.696;2.114;2023-04-22T07:41:50;98732.77;;;10.17;82.37
12536;BME280;6334;48.696;2.114;2023-04-22T07:44:21;98738.70;;;10.16;82.57
12536;BME280;6334;48.696;2.114;2023-04-22T07:46:51;98746.89;;;10.25;77.93
12536;BME280;6334;48.696;2.114;2023-04-22T07:49:22;98746.70;;;10.28;80.66
12536;BME280;6334;48.696;2.114;2023-04-22T07:51:53;98749.45;;;10.26;82.94
12536;BME280;6334;48.696;2.114;2023-04-22T07:54:24;98736.33;;;10.15;83.46
12536;BME280;6334;48.696;2.114;2023-04-22T07:56:54;98737.66;;;10.34;80.30
12536;BME280;6334;48.696;2.114;2023-04-22T07:59:24;98744.83;;;10.19;82.50
12536;BME280;6334;48.696;2.114;2023-04-22T08:01:53;98744.91;;;9.95;85.99
12536;BME280;6334;48.696;2.114;2023-04-22T08:04:24;98745.34;;;10.13;84.86
12536;BME280;6334;48.696;2.114;2023-04-22T08:06:54;98751.20;;;10.35;82.50
12536;BME280;6334;48.696;2.114;2023-04-22T08:09:25;98745.56;;;10.34;81.87
12536;BME280;6334;48.696;2.114;2023-04-22T08:11:55;98749.89;;;10.34;81.69
12536;BME280;6334;48.696;2.114;2023-04-22T08:14:26;98756.33;;;10.38;83.42
12536;BME280;6334;48.696;2.114;2023-04-22T08:16:56;98760.69;;;10.53;83.13
12536;BME280;6334;48.696;2.114;2023-04-22T08:19:26;98756.19;;;10.37;84.40
12536;BME280;6334;48.696;2.114;2023-04-22T08:21:57;98767.88;;;10.41;84.27
12536;BME280;6334;48.696;2.114;2023-04-22T08:24:27;98769.17;;;10.45;86.14
12536;BME280;6334;48.696;2.114;2023-04-22T08:26:57;98768.94;;;10.65;84.17
12536;BME280;6334;48.696;2.114;2023-04-22T08:29:27;98767.91;;;10.58;83.13
12536;BME280;6334;48.696;2.114;2023-04-22T08:31:58;98779.70;;;10.58;83.89
12536;BME280;6334;48.696;2.114;2023-04-22T08:34:28;98784.81;;;10.60;85.12
12536;BME280;6334;48.696;2.114;2023-04-22T08:36:59;98781.33;;;10.73;84.23
12536;BME280;6334;48.696;2.114;2023-04-22T08:39:29;98775.25;;;10.68;84.98
12536;BME280;6334;48.696;2.114;2023-04-22T08:42:00;98773.55;;;10.59;85.40
12536;BME280;6334;48.696;2.114;2023-04-22T08:44:29;98777.11;;;10.59;84.88
12536;BME280;6334;48.696;2.114;2023-04-22T08:46:59;98784.33;;;10.77;85.76
12536;BME280;6334;48.696;2.114;2023-04-22T08:49:30;98788.22;;;10.63;86.69
12536;BME280;6334;48.696;2.114;2023-04-22T08:52:01;98790.00;;;10.62;86.90
12536;BME280;6334;48.696;2.114;2023-04-22T08:54:31;98793.76;;;10.67;88.01
12536;BME280;6334;48.696;2.114;2023-04-22T08:57:02;98780.03;;;10.61;88.11
12536;BME280;6334;48.696;2.114;2023-04-22T08:59:32;98793.70;;;10.65;88.30
12536;BME280;6334;48.696;2.114;2023-04-22T09:02:02;98796.01;;;10.64;88.33
12536;BME280;6334;48.696;2.114;2023-04-22T09:04:32;98801.55;;;10.69;88.06
12536;BME280;6334;48.696;2.114;2023-04-22T09:07:03;98804.09;;;10.71;89.59
12536;BME280;6334;48.696;2.114;2023-04-22T09:09:33;98801.09;;;10.79;88.23
12536;BME280;6334;48.696;2.114;2023-04-22T09:12:04;98802.91;;;10.92;87.40
12536;BME280;6334;48.696;2.114;2023-04-22T09:14:34;98807.20;;;10.90;88.41
12536;BME280;6334;48.696;2.114;2023-04-22T09:17:04;98814.13;;;10.85;88.69
12536;BME280;6334;48.696;2.114;2023-04-22T09:19:34;98808.35;;;10.90;88.47
12536;BME280;6334;48.696;2.114;2023-04-22T09:22:07;98808.00;;;11.09;87.84
12536;BME280;6334;48.696;2.114;2023-04-22T09:24:35;98809.85;;;11.13;87.29
12536;BME280;6334;48.696;2.114;2023-04-22T09:27:06;98816.39;;;11.22;85.42
12536;BME280;6334;48.696;2.114;2023-04-22T09:29:36;98821.93;;;10.95;88.08
12536;BME280;6334;48.696;2.114;2023-04-22T09:32:09;98823.05;;;11.19;86.51
12536;BME280;6334;48.696;2.114;2023-04-22T09:34:49;98825.69;;;11.07;86.57
12536;BME280;6334;48.696;2.114;2023-04-22T09:37:24;98838.26;;;10.92;87.48
12536;BME280;6334;48.696;2.114;2023-04-22T09:39:55;98846.98;;;11.11;85.67
12536;BME280;6334;48.696;2.114;2023-04-22T09:42:25;98847.06;;;11.05;86.48
12536;BME280;6334;48.696;2.114;2023-04-22T09:44:57;98853.77;;;11.17;85.64
12536;BME280;6334;48.696;2.114;2023-04-22T09:47:33;98860.36;;;10.88;87.70
12536;BME280;6334;48.696;2.114;2023-04-22T09:49:57;98868.04;;;11.01;86.20
12536;BME280;6334;48.696;2.114;2023-04-22T09:52:27;98876.54;;;10.93;86.80
12536;BME280;6334;48.696;2.114;2023-04-22T09:54:56;98876.09;;;11.29;84.78
12536;BME280;6334;48.696;2.114;2023-04-22T09:57:26;98879.48;;;11.04;86.61
12536;BME280;6334;48.696;2.114;2023-04-22T09:59:57;98884.77;;;11.06;85.79
12536;BME280;6334;48.696;2.114;2023-04-22T10:02:28;98887.66;;;10.82;86.69
12536;BME280;6334;48.696;2.114;2023-04-22T10:04:57;98891.98;;;10.86;86.24
12536;BME280;6334;48.696;2.114;2023-04-22T10:07:28;98886.18;;;10.79;86.34
12536;BME280;6334;48.696;2.114;2023-04-22T10:09:58;98894.82;;;10.72;85.88
12536;BME280;6334;48.696;2.114;2023-04-22T10:12:28;98893.63;;;10.99;84.97
12536;BME280;6334;48.696;2.114;2023-04-22T10:15:00;98895.33;;;10.85;85.17
12536;BME280;6334;48.696;2.114;2023-04-22T10:17:33;98902.05;;;10.83;84.58
12536;BME280;6334;48.696;2.114;2023-04-22T10:20:03;98900.03;;;10.84;84.21
12536;BME280;6334;48.696;2.114;2023-04-22T10:22:32;98897.61;;;10.97;84.50
12536;BME280;6334;48.696;2.114;2023-04-22T10:25:02;98909.92;;;11.07;83.62
12536;BME280;6334;48.696;2.114;2023-04-22T10:27:31;98899.50;;;10.84;84.40
12536;BME280;6334;48.696;2.114;2023-04-22T10:30:01;98907.44;;;11.02;83.30
12536;BME280;6334;48.696;2.114;2023-04-22T10:32:31;98907.28;;;10.94;84.16
12536;BME280;6334;48.696;2.114;2023-04-22T10:35:07;98914.60;;;10.94;83.73
12536;BME280;6334;48.696;2.114;2023-04-22T10:37:36;98926.94;;;10.69;84.22
12536;BME280;6334;48.696;2.114;2023-04-22T10:40:11;98926.74;;;10.75;83.75
12536;BME280;6334;48.696;2.114;2023-04-22T10:42:41;98923.84;;;11.10;82.02
12536;BME280;6334;48.696;2.114;2023-04-22T10:45:11;98938.17;;;10.88;83.15
12536;BME280;6334;48.696;2.114;2023-04-22T10:47:43;98938.38;;;11.07;82.94
12536;BME280;6334;48.696;2.114;2023-04-22T10:50:13;98937.86;;;11.04;82.88
12536;BME280;6334;48.696;2.114;2023-04-22T10:52:44;98946.86;;;10.86;83.03
12536;BME280;6334;48.696;2.114;2023-04-22T10:55:13;98950.42;;;11.06;81.98
12536;BME280;6334;48.696;2.114;2023-04-22T10:57:44;98948.86;;;11.03;82.76
12536;BME280;6334;48.696;2.114;2023-04-22T11:03:07;98961.66;;;11.12;81.62
12536;BME280;6334;48.696;2.114;2023-04-22T11:05:38;98971.61;;;11.26;81.63
12536;BME280;6334;48.696;2.114;2023-04-22T11:08:12;98970.01;;;11.13;82.35
12536;BME280;6334;48.696;2.114;2023-04-22T11:10:42;98970.97;;;11.30;81.70
12536;BME280;6334;48.696;2.114;2023-04-22T11:13:12;98968.90;;;11.43;80.77
12536;BME280;6334;48.696;2.114;2023-04-22T11:15:42;98978.97;;;11.35;80.17
12536;BME280;6334;48.696;2.114;2023-04-22T11:18:13;98977.53;;;11.79;77.02
12536;BME280;6334;48.696;2.114;2023-04-22T11:20:41;98978.24;;;11.27;81.33
12536;BME280;6334;48.696;2.114;2023-04-22T11:23:14;98989.82;;;11.34;82.31
12536;BME280;6334;48.696;2.114;2023-04-22T11:25:42;98995.05;;;11.29;81.87
12536;BME280;6334;48.696;2.114;2023-04-22T11:28:11;98998.57;;;11.47;81.24
12536;BME280;6334;48.696;2.114;2023-04-22T11:30:41;99000.94;;;11.25;81.91
12536;BME280;6334;48.696;2.114;2023-04-22T11:33:13;99006.38;;;11.22;82.69
12536;BME280;6334;48.696;2.114;2023-04-22T11:35:40;99001.97;;;11.42;82.07
12536;BME280;6334;48.696;2.114;2023-04-22T11:38:11;99004.13;;;11.58;81.78
12536;BME280;6334;48.696;2.114;2023-04-22T11:40:41;99006.62;;;11.38;82.51
12536;BME280;6334;48.696;2.114;2023-04-22T11:43:12;99008.34;;;11.41;82.18
12536;BME280;6334;48.696;2.114;2023-04-22T11:45:42;99008.23;;;11.50;82.76
12536;BME280;6334;48.696;2.114;2023-04-22T11:48:13;99018.71;;;11.37;82.85
12536;BME280;6334;48.696;2.114;2023-04-22T11:50:41;99020.23;;;11.28;83.73
12536;BME280;6334;48.696;2.114;2023-04-22T11:53:20;99021.68;;;11.27;83.67
12536;BME280;6334;48.696;2.114;2023-04-22T11:55:48;99023.70;;;11.24;83.84
12536;BME280;6334;48.696;2.114;2023-04-22T11:58:24;99020.30;;;11.18;83.79
12536;BME280;6334;48.696;2.114;2023-04-22T12:00:53;99030.05;;;11.58;81.74
12536;BME280;6334;48.696;2.114;2023-04-22T12:03:26;99034.80;;;11.39;83.11
12536;BME280;6334;48.696;2.114;2023-04-22T12:05:55;99035.50;;;11.46;83.56
12536;BME280;6334;48.696;2.114;2023-04-22T12:08:31;99042.78;;;11.53;82.36
12536;BME280;6334;48.696;2.114;2023-04-22T12:11:01;99042.16;;;12.23;79.78
12536;BME280;6334;48.696;2.114;2023-04-22T12:13:33;99041.19;;;12.12;82.22
12536;BME280;6334;48.696;2.114;2023-04-22T12:16:08;99045.98;;;12.11;81.58
12536;BME280;6334;48.696;2.114;2023-04-22T12:18:51;99041.62;;;12.07;82.15
12536;BME280;6334;48.696;2.114;2023-04-22T12:21:22;99038.45;;;11.98;80.99
12536;BME280;6334;48.696;2.114;2023-04-22T12:27:27;99034.22;;;12.45;79.76
12536;BME280;6334;48.696;2.114;2023-04-22T12:29:59;99038.64;;;12.61;79.20
12536;BME280;6334;48.696;2.114;2023-04-22T12:32:30;99038.70;;;12.80;79.56
12536;BME280;6334;48.696;2.114;2023-04-22T12:35:00;99037.05;;;13.08;76.87
12536;BME280;6334;48.696;2.114;2023-04-22T12:37:31;99039.20;;;13.13;78.77
12536;BME280;6334;48.696;2.114;2023-04-22T12:40:02;99045.11;;;13.29;79.04
12536;BME280;6334;48.696;2.114;2023-04-22T12:42:35;99047.08;;;13.33;77.03
12536;BME280;6334;48.696;2.114;2023-04-22T12:45:05;99043.48;;;13.31;76.74
12536;BME280;6334;48.696;2.114;2023-04-22T12:47:36;99047.46;;;13.38;75.85
12536;BME280;6334;48.696;2.114;2023-04-22T12:50:07;99056.40;;;13.53;78.05
12536;BME280;6334;48.696;2.114;2023-04-22T12:52:39;99058.60;;;13.52;75.92
12536;BME280;6334;48.696;2.114;2023-04-22T12:55:09;99066.91;;;13.64;76.66
12536;BME280;6334;48.696;2.114;2023-04-22T12:57:40;99065.05;;;13.47;75.76
12536;BME280;6334;48.696;2.114;2023-04-22T13:00:12;99070.11;;;13.82;74.90
12536;BME280;6334;48.696;2.114;2023-04-22T13:02:45;99067.55;;;13.77;73.66
12536;BME280;6334;48.696;2.114;2023-04-22T13:05:12;99066.41;;;13.87;73.62
12536;BME280;6334;48.696;2.114;2023-04-22T13:07:46;99068.56;;;14.05;74.53
12536;BME280;6334;48.696;2.114;2023-04-22T13:10:17;99070.55;;;13.73;75.08
12536;BME280;6334;48.696;2.114;2023-04-22T13:12:48;99074.08;;;13.85;73.30
12536;BME280;6334;48.696;2.114;2023-04-22T13:15:19;99080.20;;;14.01;73.88
12536;BME280;6334;48.696;2.114;2023-04-22T13:17:50;99080.86;;;14.16;71.75
12536;BME280;6334;48.696;2.114;2023-04-22T13:20:23;99081.00;;;13.79;72.03
12536;BME280;6334;48.696;2.114;2023-04-22T13:22:53;99078.37;;;13.93;71.30
12536;BME280;6334;48.696;2.114;2023-04-22T13:25:23;99082.20;;;14.43;70.36
12536;BME280;6334;48.696;2.114;2023-04-22T13:27:52;99085.44;;;14.42;71.42
12536;BME280;6334;48.696;2.114;2023-04-22T13:30:22;99081.19;;;14.14;70.52
12536;BME280;6334;48.696;2.114;2023-04-22T13:32:53;99083.73;;;13.93;73.23
12536;BME280;6334;48.696;2.114;2023-04-22T13:35:24;99085.64;;;13.88;72.36
12536;BME280;6334;48.696;2.114;2023-04-22T13:37:54;99086.16;;;14.31;72.25
12536;BME280;6334;48.696;2.114;2023-04-22T13:40:24;99082.33;;;14.22;71.32
12536;BME280;6334;48.696;2.114;2023-04-22T13:45:28;99076.80;;;13.86;72.57
12536;BME280;6334;48.696;2.114;2023-04-22T13:47:59;99074.20;;;14.03;71.81
12536;BME280;6334;48.696;2.114;2023-04-22T13:50:29;99078.28;;;14.03;71.55
12536;BME280;6334;48.696;2.114;2023-04-22T13:52:59;99076.95;;;14.11;70.91
12536;BME280;6334;48.696;2.114;2023-04-22T13:55:31;99077.63;;;14.44;69.16